Time;durP1;ratioP1;P1;durP2;ratioP2;P2;SDS_P1;SDS_P2;PMS_P1;PMS_P2;Temp;Humidity;BMP_temperature;BMP_pressure;BME280_temperature;BME280_humidity;BME280_pressure;Samples;Min_cycle;Max_cycle;Signal;HPM_P1;HPM_P2
2021/01/12 05:01:40;;;;;;;1999.90;999.90;;;2.70;99.90;;;;;;5346981;23;20234;-77
2021/01/12 05:04:07;;;;;;;1999.90;999.90;;;2.70;99.90;;;;;;4897128;29;20222;-77
2021/01/12 05:06:38;;;;;;;1999.90;999.90;;;2.60;99.90;;;;;;4897698;29;20267;-78
2021/01/12 05:09:05;;;;;;;1999.90;999.90;;;2.70;99.90;;;;;;4897093;29;20672;-77
2021/01/12 05:11:34;;;;;;;1999.90;999.90;;;2.70;99.90;;;;;;4897178;29;20231;-78
2021/01/12 05:14:03;;;;;;;1999.90;999.90;;;2.70;99.90;;;;;;4897846;29;20214;-77
2021/01/12 05:16:30;;;;;;;1999.90;999.90;;;2.70;99.90;;;;;;4897251;29;20211;-77
2021/01/12 05:18:59;;;;;;;1999.90;999.90;;;2.50;99.90;;;;;;4896951;29;20287;-77
2021/01/12 05:21:26;;;;;;;1999.90;999.90;;;2.50;99.90;;;;;;4896546;29;20227;-77
2021/01/12 05:24:02;;;;;;;1999.90;999.90;;;2.50;99.90;;;;;;4896930;29;20215;-77
2021/01/12 05:26:34;;;;;;;1999.90;999.90;;;2.50;99.90;;;;;;4895260;29;20270;-77
2021/01/12 05:29:02;;;;;;;1999.90;999.90;;;2.60;99.90;;;;;;4895729;29;20259;-76
2021/01/12 05:31:29;;;;;;;1999.90;999.90;;;2.70;99.90;;;;;;4892620;29;20243;-77
2021/01/12 05:34:02;;;;;;;1999.90;999.90;;;2.60;99.90;;;;;;4904695;29;20707;-77
2021/01/12 05:36:31;;;;;;;1999.90;999.90;;;2.50;99.90;;;;;;4915985;29;20206;-77
2021/01/12 05:39:02;;;;;;;1999.90;999.90;;;2.50;99.90;;;;;;4915585;29;20297;-78
2021/01/12 05:41:30;;;;;;;1999.90;999.90;;;2.60;99.90;;;;;;4917242;29;20634;-78
2021/01/12 05:43:57;;;;;;;1999.90;999.90;;;2.40;99.90;;;;;;4915805;29;20211;-77
2021/01/12 05:46:24;;;;;;;1999.90;999.90;;;2.50;99.90;;;;;;4915817;29;20203;-78
2021/01/12 05:48:51;;;;;;;1999.90;999.90;;;2.50;99.90;;;;;;4915247;29;20199;-78
2021/01/12 05:51:19;;;;;;;1999.90;999.90;;;2.50;99.90;;;;;;4915459;29;20222;-77
2021/01/12 05:54:03;;;;;;;1999.90;999.90;;;2.30;99.90;;;;;;4915976;29;20262;-77
2021/01/12 05:56:32;;;;;;;1999.90;999.90;;;2.30;99.90;;;;;;4915788;29;20230;-77
2021/01/12 05:59:00;;;;;;;1999.90;999.90;;;2.20;99.90;;;;;;4915538;29;20230;-77
2021/01/12 06:01:46;;;;;;;1999.90;999.90;;;2.20;99.90;;;;;;4915035;29;20256;-78
2021/01/12 06:04:14;;;;;;;1999.90;999.90;;;2.20;99.90;;;;;;4914342;29;20203;-78
2021/01/12 06:06:43;;;;;;;1999.90;999.90;;;2.00;99.90;;;;;;4897689;29;20624;-78
2021/01/12 06:09:11;;;;;;;1999.90;999.90;;;2.10;99.90;;;;;;4895893;29;20677;-77
2021/01/12 06:11:39;;;;;;;1999.90;999.90;;;2.10;99.90;;;;;;4896392;29;20231;-78
2021/01/12 06:14:08;;;;;;;1999.90;999.90;;;2.10;99.90;;;;;;4896515;29;20207;-77
2021/01/12 06:16:37;;;;;;;1999.90;999.90;;;2.20;99.90;;;;;;4896405;29;20215;-77
2021/01/12 06:19:12;;;;;;;1999.90;999.90;;;2.20;99.90;;;;;;4895981;29;20234;-78
2021/01/12 06:22:16;;;;;;;1999.90;999.90;;;2.10;99.90;;;;;;4896399;29;20231;-77
2021/01/12 06:24:59;;;;;;;1999.90;999.90;;;2.20;99.90;;;;;;4848515;29;20206;-77
2021/01/12 06:27:28;;;;;;;1999.90;999.90;;;2.10;99.90;;;;;;4896572;29;20295;-77
2021/01/12 06:29:58;;;;;;;1999.90;999.90;;;2.10;99.90;;;;;;4896218;29;20214;-78
2021/01/12 06:32:27;;;;;;;1999.90;999.90;;;2.00;99.90;;;;;;4896900;29;20227;-76
2021/01/12 06:34:56;;;;;;;1999.90;999.90;;;1.80;99.90;;;;;;4899816;29;20286;-78
2021/01/12 06:37:24;;;;;;;1999.90;999.90;;;1.90;99.90;;;;;;4899359;29;20260;-77
2021/01/12 06:39:53;;;;;;;1999.90;999.90;;;1.90;99.90;;;;;;4899493;29;20251;-77
2021/01/12 06:42:25;;;;;;;1999.90;999.90;;;2.00;99.90;;;;;;4899495;29;20736;-77
2021/01/12 06:44:53;;;;;;;1999.90;999.90;;;2.10;99.90;;;;;;4899922;29;20255;-76
2021/01/12 06:47:22;;;;;;;1999.90;999.90;;;2.20;99.90;;;;;;4899552;29;20271;-77
2021/01/12 06:49:50;;;;;;;1999.90;999.90;;;2.30;99.90;;;;;;4899574;29;20302;-77
2021/01/12 06:52:17;;;;;;;1999.90;999.90;;;2.40;99.90;;;;;;4900300;29;20670;-77
2021/01/12 06:54:46;;;;;;;1999.90;999.90;;;2.50;99.90;;;;;;4900388;29;20626;-77
2021/01/12 06:57:14;;;;;;;1999.90;999.90;;;2.40;99.90;;;;;;4899847;29;20307;-77
2021/01/12 06:59:44;;;;;;;1999.90;999.90;;;2.40;99.90;;;;;;4899342;29;20207;-77
2021/01/12 07:02:23;;;;;;;1999.90;999.90;;;2.50;99.90;;;;;;4881728;29;20717;-77
2021/01/12 07:04:54;;;;;;;1999.90;999.90;;;2.50;99.90;;;;;;4879100;29;20594;-77
2021/01/12 07:07:23;;;;;;;1999.90;999.90;;;2.50;99.90;;;;;;4879036;29;20272;-77
2021/01/12 07:09:53;;;;;;;1999.90;999.90;;;2.60;99.90;;;;;;4878566;29;20207;-77
2021/01/12 07:12:21;;;;;;;1999.90;999.90;;;2.70;99.90;;;;;;4878973;29;20287;-77
2021/01/12 07:14:51;;;;;;;1999.90;999.90;;;2.70;99.90;;;;;;4879155;29;20265;-77
2021/01/12 07:17:26;;;;;;;1999.90;999.90;;;2.70;99.90;;;;;;4879967;29;20283;-77
2021/01/12 07:20:18;;;;;;;1999.90;999.90;;;2.80;99.90;;;;;;4880411;29;20207;-77
2021/01/12 07:22:54;;;;;;;1999.90;999.90;;;2.80;99.90;;;;;;4866857;29;20204;-77
2021/01/12 07:25:24;;;;;;;1999.90;999.90;;;2.90;99.90;;;;;;4880304;29;20211;-77
2021/01/12 07:28:06;;;;;;;1999.90;999.90;;;2.90;99.90;;;;;;4880121;29;20212;-77
2021/01/12 07:30:34;;;;;;;1999.90;999.90;;;3.10;99.90;;;;;;4880260;29;20649;-77
2021/01/12 07:33:02;;;;;;;1999.90;999.90;;;3.00;99.90;;;;;;4880293;29;20295;-77
2021/01/12 07:35:31;;;;;;;1999.90;999.90;;;3.00;99.90;;;;;;4880131;29;20212;-77
2021/01/12 07:37:58;;;;;;;1999.90;999.90;;;3.10;99.90;;;;;;4879800;29;20452;-77
2021/01/12 07:40:26;;;;;;;1999.90;999.90;;;3.10;99.90;;;;;;4880200;29;20220;-77
2021/01/12 07:42:55;;;;;;;1999.90;999.90;;;3.10;99.90;;;;;;4880351;29;20207;-77
2021/01/12 07:45:24;;;;;;;1999.90;999.90;;;3.10;99.90;;;;;;4879017;29;20685;-77
2021/01/12 07:47:51;;;;;;;1999.90;999.90;;;3.20;99.90;;;;;;4879815;29;20268;-76
2021/01/12 07:50:19;;;;;;;1999.90;999.90;;;3.20;99.90;;;;;;4879690;29;20212;-77
2021/01/12 07:52:46;;;;;;;1999.90;999.90;;;3.10;99.90;;;;;;4879868;29;20674;-77
2021/01/12 07:55:13;;;;;;;1999.90;999.90;;;3.20;99.90;;;;;;4879945;29;20215;-77
2021/01/12 07:57:42;;;;;;;1999.90;999.90;;;3.20;99.90;;;;;;4879612;29;20224;-77
2021/01/12 08:00:11;;;;;;;1999.90;999.90;;;3.10;99.90;;;;;;4880085;29;20204;-77
2021/01/12 08:02:39;;;;;;;1999.90;999.90;;;3.10;99.90;;;;;;4879796;29;20255;-77
2021/01/12 08:05:08;;;;;;;1999.90;999.90;;;3.20;99.90;;;;;;4879563;29;20674;-77
2021/01/12 08:07:35;;;;;;;1999.90;999.90;;;3.20;99.90;;;;;;4879607;29;20252;-77
2021/01/12 08:10:03;;;;;;;1999.90;999.90;;;3.30;99.90;;;;;;4879754;29;20291;-77
2021/01/12 08:12:30;;;;;;;1999.90;999.90;;;3.20;99.90;;;;;;4879451;29;20721;-77
2021/01/12 08:15:08;;;;;;;1999.90;999.90;;;3.20;99.90;;;;;;4879615;29;20236;-77
2021/01/12 08:17:35;;;;;;;1999.90;999.90;;;3.30;99.90;;;;;;4879522;29;20224;-77
2021/01/12 08:20:05;;;;;;;1999.90;999.90;;;3.30;99.90;;;;;;4880196;29;20750;-78
2021/01/12 08:22:32;;;;;;;1999.90;999.90;;;3.20;99.90;;;;;;4879422;29;20247;-77
2021/01/12 08:25:05;;;;;;;1999.90;999.90;;;3.10;99.90;;;;;;4879517;29;20276;-77
2021/01/12 08:27:32;;;;;;;1999.90;999.90;;;3.10;99.90;;;;;;4879644;29;20208;-77
2021/01/12 08:30:00;;;;;;;1999.90;999.90;;;3.00;99.90;;;;;;4879031;29;20216;-77
2021/01/12 08:32:30;;;;;;;1999.90;999.90;;;3.10;99.90;;;;;;4879099;29;20740;-77
2021/01/12 08:35:02;;;;;;;1999.90;999.90;;;3.10;99.90;;;;;;4879122;29;20248;-77
2021/01/12 08:37:31;;;;;;;1999.90;999.90;;;3.10;99.90;;;;;;4879247;29;20567;-77
2021/01/12 08:39:58;;;;;;;1999.90;999.90;;;3.10;99.90;;;;;;4879014;29;20216;-77
2021/01/12 08:42:26;;;;;;;1999.90;999.90;;;3.20;99.90;;;;;;4879279;29;20276;-77
2021/01/12 08:44:53;;;;;;;1999.90;999.90;;;3.10;99.90;;;;;;4879188;29;20208;-77
2021/01/12 08:47:25;;;;;;;1999.90;999.90;;;3.00;99.90;;;;;;4879118;29;20223;-77
2021/01/12 08:50:01;;;;;;;1999.90;999.90;;;3.00;99.90;;;;;;4878781;29;20216;-77
2021/01/12 08:52:29;;;;;;;1999.90;999.90;;;3.00;99.90;;;;;;4878888;29;20311;-77
2021/01/12 08:54:55;;;;;;;1999.90;999.90;;;3.00;99.90;;;;;;4878526;29;20463;-77
2021/01/12 08:57:22;;;;;;;1999.90;999.90;;;3.00;99.90;;;;;;4878938;29;20208;-77
2021/01/12 08:59:49;;;;;;;1999.90;999.90;;;3.00;99.90;;;;;;4878671;29;20208;-77
2021/01/12 09:02:18;;;;;;;1999.90;999.90;;;3.10;99.90;;;;;;4878652;29;20263;-77
2021/01/12 09:04:46;;;;;;;1999.90;999.90;;;3.10;99.90;;;;;;4878719;29;20212;-77
2021/01/12 09:07:17;;;;;;;1999.90;999.90;;;3.10;99.90;;;;;;4878727;29;20204;-77
2021/01/12 09:09:51;;;;;;;1999.90;999.90;;;3.20;99.90;;;;;;4878434;29;20712;-77
2021/01/12 09:12:18;;;;;;;1999.90;999.90;;;3.20;99.90;;;;;;4878812;29;20271;-77
2021/01/12 09:14:47;;;;;;;1999.90;999.90;;;3.20;99.90;;;;;;4878700;29;20210;-77
2021/01/12 09:17:17;;;;;;;1999.90;999.90;;;3.20;99.90;;;;;;4878627;29;20208;-77
2021/01/12 09:19:50;;;;;;;1999.90;999.90;;;3.30;99.90;;;;;;4878522;29;20235;-77
2021/01/12 09:22:17;;;;;;;1999.90;999.90;;;3.20;99.90;;;;;;4878558;29;20322;-77
2021/01/12 09:24:51;;;;;;;1999.90;999.90;;;3.30;99.90;;;;;;4878932;29;20209;-77
2021/01/12 09:27:20;;;;;;;1999.90;999.90;;;3.30;99.90;;;;;;4878402;29;20208;-77
2021/01/12 09:29:47;;;;;;;1999.90;999.90;;;3.30;99.90;;;;;;4878237;29;20584;-77
2021/01/12 09:32:25;;;;;;;1999.90;999.90;;;3.30;99.90;;;;;;4878237;29;20280;-77
2021/01/12 09:34:54;;;;;;;1999.90;999.90;;;3.40;99.90;;;;;;4878636;29;20287;-77
2021/01/12 09:37:24;;;;;;;1999.90;999.90;;;3.40;99.90;;;;;;4878354;29;20207;-77
2021/01/12 09:39:53;;;;;;;1999.90;999.90;;;3.40;99.90;;;;;;4878229;29;20219;-77
2021/01/12 09:42:24;;;;;;;1999.90;999.90;;;3.50;99.90;;;;;;4878354;29;20316;-77
2021/01/12 09:45:07;;;;;;;1999.90;999.90;;;3.50;99.90;;;;;;4878261;29;20219;-77
2021/01/12 09:47:36;;;;;;;1999.90;999.90;;;3.50;99.90;;;;;;4878208;29;20218;-77
2021/01/12 09:50:05;;;;;;;1999.90;999.90;;;3.50;99.90;;;;;;4878247;29;20208;-77
2021/01/12 09:52:31;;;;;;;1999.90;999.90;;;3.50;99.90;;;;;;4878023;29;20728;-77
2021/01/12 09:54:58;;;;;;;1999.90;999.90;;;3.50;99.90;;;;;;4878319;29;20216;-77
2021/01/12 09:57:26;;;;;;;1999.90;999.90;;;3.50;99.90;;;;;;4877878;29;20264;-77
2021/01/12 09:59:53;;;;;;;1999.90;999.90;;;3.50;99.90;;;;;;4878239;29;20207;-77
2021/01/12 10:02:19;;;;;;;1999.90;999.90;;;3.50;99.90;;;;;;4877944;29;20606;-77
2021/01/12 10:04:46;;;;;;;1999.90;999.90;;;3.60;99.90;;;;;;4878443;29;20208;-77
2021/01/12 10:07:14;;;;;;;1999.90;999.90;;;3.60;99.90;;;;;;4878462;29;20212;-77
2021/01/12 10:09:41;;;;;;;1999.90;999.90;;;3.60;99.90;;;;;;4882976;29;20666;-77
2021/01/12 10:12:08;;;;;;;1999.90;999.90;;;3.70;99.90;;;;;;4882909;29;20238;-77
2021/01/12 10:14:35;;;;;;;1999.90;999.90;;;3.70;99.90;;;;;;4882078;29;20204;-77
2021/01/12 10:17:03;;;;;;;1999.90;999.90;;;3.80;99.90;;;;;;4882357;29;20638;-77
2021/01/12 10:19:31;;;;;;;1999.90;999.90;;;3.80;99.90;;;;;;4881725;29;20228;-77
2021/01/12 10:21:57;;;;;;;1999.90;999.90;;;3.80;99.90;;;;;;4882056;29;20228;-77
2021/01/12 10:24:25;;;;;;;1999.90;999.90;;;3.80;99.90;;;;;;4881909;29;20256;-77
2021/01/12 10:26:54;;;;;;;1999.90;999.90;;;3.90;99.90;;;;;;4881920;29;20267;-76
2021/01/12 10:29:21;;;;;;;1999.90;999.90;;;3.90;99.90;;;;;;4881269;29;20212;-77
2021/01/12 10:31:51;;;;;;;1999.90;999.90;;;4.00;99.90;;;;;;4881833;29;20251;-77
2021/01/12 10:34:20;;;;;;;1999.90;999.90;;;4.00;99.90;;;;;;4881728;29;20212;-77
2021/01/12 10:36:50;;;;;;;1999.90;999.90;;;4.00;99.90;;;;;;4881390;29;20212;-77
2021/01/12 10:39:18;;;;;;;1999.90;999.90;;;4.00;99.90;;;;;;4881422;29;20236;-77
2021/01/12 10:41:46;;;;;;;1999.90;999.90;;;3.90;99.90;;;;;;4881439;29;20258;-77
2021/01/12 10:44:12;;;;;;;1999.90;999.90;;;3.90;99.90;;;;;;4881314;29;20768;-77
2021/01/12 10:46:39;;;;;;;1999.90;999.90;;;3.90;99.90;;;;;;4881321;29;20280;-76
2021/01/12 10:49:06;;;;;;;1999.90;999.90;;;4.00;99.90;;;;;;4881171;29;20204;-76
2021/01/12 10:51:33;;;;;;;1999.90;999.90;;;4.00;99.90;;;;;;4881109;29;20235;-77
2021/01/12 10:54:00;;;;;;;1999.90;999.90;;;4.00;99.90;;;;;;4881152;29;20669;-77
2021/01/12 10:56:27;;;;;;;1999.90;999.90;;;4.10;99.90;;;;;;4883246;29;20234;-78
2021/01/12 10:58:55;;;;;;;1999.90;999.90;;;4.00;99.90;;;;;;4882246;29;20224;-78
2021/01/12 11:01:23;;;;;;;1999.90;999.90;;;4.10;99.90;;;;;;4882095;29;20232;-77
2021/01/12 11:03:50;;;;;;;1999.90;999.90;;;4.10;99.90;;;;;;4882473;29;20215;-77
2021/01/12 11:06:19;;;;;;;1999.90;999.90;;;4.20;99.90;;;;;;4882539;29;20272;-78
2021/01/12 11:08:48;;;;;;;1999.90;999.90;;;4.10;99.90;;;;;;4882986;29;20204;-78
2021/01/12 11:11:20;;;;;;;1999.90;999.90;;;4.10;99.90;;;;;;4882532;29;20582;-78
2021/01/12 11:13:48;;;;;;;1999.90;999.90;;;4.10;99.90;;;;;;4882271;29;20558;-75
2021/01/12 11:16:17;;;;;;;1999.90;999.90;;;4.00;99.90;;;;;;4880789;29;20204;-76
2021/01/12 11:18:46;;;;;;;1999.90;999.90;;;4.00;99.90;;;;;;4879254;29;20260;-76
2021/01/12 11:21:14;;;;;;;1999.90;999.90;;;4.00;99.90;;;;;;4880548;29;20232;-75
2021/01/12 11:23:41;;;;;;;1999.90;999.90;;;4.00;99.90;;;;;;4880548;29;20208;-76
2021/01/12 11:26:11;;;;;;;1999.90;999.90;;;4.00;99.90;;;;;;4880757;29;20689;-76
2021/01/12 11:28:39;;;;;;;1999.90;999.90;;;4.00;99.90;;;;;;4880167;29;20211;-77
2021/01/12 11:31:07;;;;;;;1999.90;999.90;;;3.90;99.90;;;;;;4880367;29;20276;-76
2021/01/12 11:33:34;;;;;;;1999.90;999.90;;;4.00;99.90;;;;;;4881740;29;20212;-75
2021/01/12 11:36:02;;;;;;;1999.90;999.90;;;4.00;99.90;;;;;;4881572;29;20707;-76
2021/01/12 11:38:38;;;;;;;1999.90;999.90;;;4.00;99.90;;;;;;4880352;29;20760;-76
2021/01/12 11:41:08;;;;;;;1999.90;999.90;;;4.10;99.90;;;;;;4880364;29;20232;-76
2021/01/12 11:43:35;;;;;;;1999.90;999.90;;;4.20;99.90;;;;;;4880198;29;20261;-76
2021/01/12 11:46:03;;;;;;;1999.90;999.90;;;4.10;99.90;;;;;;4880365;29;20212;-76
2021/01/12 11:48:30;;;;;;;1999.90;999.90;;;4.20;99.90;;;;;;4879934;29;20209;-75
2021/01/12 11:50:58;;;;;;;1999.90;999.90;;;4.20;99.90;;;;;;4880199;29;20232;-76
2021/01/12 11:53:25;;;;;;;1999.90;999.90;;;4.30;99.90;;;;;;4880076;29;20212;-76
2021/01/12 11:55:51;;;;;;;1999.90;999.90;;;4.30;99.90;;;;;;4880517;29;20208;-76
2021/01/12 11:58:18;;;;;;;1999.90;999.90;;;4.40;99.90;;;;;;4879687;29;20235;-78
2021/01/12 12:00:45;;;;;;;1999.90;999.90;;;4.50;99.90;;;;;;4879840;29;20721;-76
2021/01/12 12:03:17;;;;;;;1999.90;999.90;;;4.50;99.90;;;;;;4879963;29;20290;-76
2021/01/12 12:05:46;;;;;;;1999.90;999.90;;;4.40;99.90;;;;;;4880177;29;20208;-76
2021/01/12 12:08:15;;;;;;;1999.90;999.90;;;4.50;99.90;;;;;;4879602;29;20252;-76
2021/01/12 12:10:41;;;;;;;1999.90;999.90;;;4.50;99.90;;;;;;4879621;29;20228;-76
2021/01/12 12:13:09;;;;;;;1999.90;999.90;;;4.50;99.90;;;;;;4879596;29;20670;-76
2021/01/12 12:15:36;;;;;;;1999.90;999.90;;;4.50;99.90;;;;;;4879804;29;20211;-76
2021/01/12 12:18:04;;;;;;;1999.90;999.90;;;4.60;99.90;;;;;;4879183;29;20232;-76
2021/01/12 12:20:31;;;;;;;1999.90;999.90;;;4.50;99.90;;;;;;4879624;29;20510;-76
2021/01/12 12:22:58;;;;;;;1999.90;999.90;;;4.50;99.90;;;;;;4879471;29;20264;-76
2021/01/12 12:25:26;;;;;;;1999.90;999.90;;;4.60;99.90;;;;;;4879344;29;20330;-76
2021/01/12 12:27:53;;;;;;;1999.90;999.90;;;4.60;99.90;;;;;;4879512;29;20235;-78
2021/01/12 12:30:21;;;;;;;1999.90;999.90;;;4.60;99.90;;;;;;4878943;29;20743;-76
2021/01/12 12:32:48;;;;;;;1999.90;999.90;;;4.60;99.90;;;;;;4879421;29;20208;-76
2021/01/12 12:35:15;;;;;;;1999.90;999.90;;;4.50;99.90;;;;;;4879544;29;20204;-76
2021/01/12 12:37:42;;;;;;;1999.90;999.90;;;4.50;99.90;;;;;;4878933;29;20753;-76
2021/01/12 12:40:10;;;;;;;1999.90;999.90;;;4.60;99.90;;;;;;4879381;29;20242;-76
2021/01/12 12:42:38;;;;;;;1999.90;999.90;;;4.50;99.90;;;;;;4879531;29;20350;-76
2021/01/12 12:45:06;;;;;;;1999.90;999.90;;;4.50;99.90;;;;;;4879150;29;20211;-76
2021/01/12 12:47:34;;;;;;;1999.90;999.90;;;4.50;99.90;;;;;;4879170;29;20215;-76
2021/01/12 12:50:01;;;;;;;1999.90;999.90;;;4.60;99.90;;;;;;4878770;29;20244;-76
2021/01/12 12:52:28;;;;;;;1999.90;999.90;;;4.50;99.90;;;;;;4878988;29;20239;-76
2021/01/12 12:54:54;;;;;;;1999.90;999.90;;;4.50;99.90;;;;;;4878985;29;20241;-76
2021/01/12 12:57:21;;;;;;;1999.90;999.90;;;4.50;99.90;;;;;;4878985;29;20212;-76
2021/01/12 13:00:06;;;;;;;1999.90;999.90;;;4.50;99.90;;;;;;4878531;29;20239;-76
2021/01/12 13:02:38;;;;;;;1999.90;999.90;;;4.50;99.90;;;;;;4878933;29;20220;-76
2021/01/12 13:05:07;;;;;;;1999.90;999.90;;;4.50;99.90;;;;;;4878662;29;20208;-76
2021/01/12 13:07:35;;;;;;;1999.90;999.90;;;4.50;99.90;;;;;;4886933;29;20260;-78
2021/01/12 13:10:03;;;;;;;1999.90;999.90;;;4.50;99.90;;;;;;4897370;29;20211;-78
2021/01/12 13:12:30;;;;;;;1999.90;999.90;;;4.50;99.90;;;;;;4897951;29;20299;-77
2021/01/12 13:14:57;;;;;;;1999.90;999.90;;;4.50;99.90;;;;;;4897467;29;20207;-78
2021/01/12 13:17:26;;;;;;;1999.90;999.90;;;4.40;99.90;;;;;;4897417;29;20636;-77
2021/01/12 13:20:04;;;;;;;1999.90;999.90;;;4.40;99.90;;;;;;4897277;29;20211;-77
2021/01/12 13:22:32;;;;;;;1999.90;999.90;;;4.50;99.90;;;;;;4890785;29;20231;-77
2021/01/12 13:24:59;;;;;;;1999.90;999.90;;;4.40;99.90;;;;;;4893451;29;20207;-77
2021/01/12 13:27:27;;;;;;;1999.90;999.90;;;4.40;99.90;;;;;;4890123;29;20203;-77
2021/01/12 13:29:54;;;;;;;1999.90;999.90;;;4.50;99.90;;;;;;4888138;29;20192;-78
2021/01/12 13:32:21;;;;;;;1999.90;999.90;;;4.50;99.90;;;;;;4890272;29;20279;-79
2021/01/12 13:34:50;;;;;;;1999.90;999.90;;;4.40;99.90;;;;;;4892128;29;20200;-78
2021/01/12 13:37:17;;;;;;;1999.90;999.90;;;4.40;99.90;;;;;;4895862;29;20376;-79
2021/01/12 13:39:43;;;;;;;1999.90;999.90;;;4.40;99.90;;;;;;4896816;29;20232;-81
2021/01/12 13:42:10;;;;;;;1999.90;999.90;;;4.40;99.90;;;;;;4895403;29;20275;-79
2021/01/12 13:44:37;;;;;;;1999.90;999.90;;;4.40;99.90;;;;;;4886455;29;20204;-78
2021/01/12 13:47:04;;;;;;;1999.90;999.90;;;4.40;99.90;;;;;;4887696;29;20735;-78
2021/01/12 13:49:31;;;;;;;1999.90;999.90;;;4.40;99.90;;;;;;4886721;29;20666;-77
2021/01/12 13:52:00;;;;;;;1999.90;999.90;;;4.40;99.90;;;;;;4885785;29;20283;-78
2021/01/12 13:54:27;;;;;;;1999.90;999.90;;;4.30;99.90;;;;;;4885883;29;20294;-78
2021/01/12 13:57:01;;;;;;;1999.90;999.90;;;4.30;99.90;;;;;;4887333;29;20672;-80
2021/01/12 13:59:32;;;;;;;1999.90;999.90;;;4.30;99.90;;;;;;4885819;29;20279;-77
2021/01/12 14:02:02;;;;;;;1999.90;999.90;;;4.30;99.90;;;;;;4885666;29;20263;-77
2021/01/12 14:04:29;;;;;;;1999.90;999.90;;;4.30;99.90;;;;;;4882738;29;20207;-77
2021/01/12 14:06:56;;;;;;;1999.90;999.90;;;4.30;99.90;;;;;;4878127;29;20212;-77
2021/01/12 14:09:24;;;;;;;1999.90;999.90;;;4.20;99.90;;;;;;4876535;29;20208;-76
2021/01/12 14:11:51;;;;;;;1999.90;999.90;;;4.20;99.90;;;;;;4881123;29;20705;-76
2021/01/12 14:14:18;;;;;;;1999.90;999.90;;;4.20;99.90;;;;;;4878132;29;20204;-76
2021/01/12 14:16:51;;;;;;;1999.90;999.90;;;4.20;99.90;;;;;;4877809;29;20211;-77
2021/01/12 14:19:19;;;;;;;1999.90;999.90;;;4.20;99.90;;;;;;4877877;29;20327;-76
2021/01/12 14:21:47;;;;;;;1999.90;999.90;;;4.30;99.90;;;;;;4878073;29;20228;-76
2021/01/12 14:24:15;;;;;;;1999.90;999.90;;;4.20;99.90;;;;;;4877761;29;20220;-77
2021/01/12 14:26:48;;;;;;;1999.90;999.90;;;4.20;99.90;;;;;;4878299;29;20219;-77
2021/01/12 14:29:16;;;;;;;1999.90;999.90;;;4.10;99.90;;;;;;4877812;29;20204;-77
2021/01/12 14:31:44;;;;;;;1999.90;999.90;;;4.10;99.90;;;;;;4878124;29;20228;-77
2021/01/12 14:34:12;;;;;;;1999.90;999.90;;;4.20;99.90;;;;;;4877788;29;20685;-76
2021/01/12 14:36:40;;;;;;;1999.90;999.90;;;4.20;99.90;;;;;;4877609;29;20272;-77
2021/01/12 14:39:20;;;;;;;1999.90;999.90;;;4.20;99.90;;;;;;4877918;29;20231;-77
2021/01/12 14:41:52;;;;;;;1999.90;999.90;;;4.20;99.90;;;;;;4878052;29;20288;-77
2021/01/12 14:44:23;;;;;;;1999.90;999.90;;;4.10;99.90;;;;;;4878396;29;20234;-76
2021/01/12 14:46:51;;;;;;;1999.90;999.90;;;4.10;99.90;;;;;;4877804;29;20256;-76
2021/01/12 14:49:19;;;;;;;1999.90;999.90;;;4.10;99.90;;;;;;4877707;29;20386;-76
2021/01/12 14:51:47;;;;;;;1999.90;999.90;;;4.10;99.90;;;;;;4877656;29;20649;-76
2021/01/12 14:54:14;;;;;;;1999.90;999.90;;;4.00;99.90;;;;;;4879541;29;20216;-76
2021/01/12 14:56:41;;;;;;;1999.90;999.90;;;4.00;99.90;;;;;;4881010;29;20526;-76
2021/01/12 14:59:09;;;;;;;1999.90;999.90;;;4.00;99.90;;;;;;4880868;29;20224;-76
2021/01/12 15:01:41;;;;;;;1999.90;999.90;;;4.00;99.90;;;;;;4880632;29;20240;-76
2021/01/12 15:04:08;;;;;;;1999.90;999.90;;;3.90;99.90;;;;;;4880928;29;20696;-76
2021/01/12 15:06:36;;;;;;;1999.90;999.90;;;3.90;99.90;;;;;;4880884;29;20215;-77
2021/01/12 15:09:03;;;;;;;1999.90;999.90;;;3.90;99.90;;;;;;4880846;29;20236;-76
2021/01/12 15:11:30;;;;;;;1999.90;999.90;;;3.90;99.90;;;;;;4880629;29;20228;-76
2021/01/12 15:13:57;;;;;;;1999.90;999.90;;;3.90;99.90;;;;;;4880648;29;20204;-76
2021/01/12 15:16:25;;;;;;;1999.90;999.90;;;3.90;99.90;;;;;;4880502;29;20216;-76
2021/01/12 15:18:52;;;;;;;1999.90;999.90;;;3.90;99.90;;;;;;4880353;29;20227;-76
2021/01/12 15:21:19;;;;;;;1999.90;999.90;;;3.80;99.90;;;;;;4880214;29;20717;-76
2021/01/12 15:23:47;;;;;;;1999.90;999.90;;;3.80;99.90;;;;;;4880416;29;20208;-77
2021/01/12 15:26:15;;;;;;;1999.90;999.90;;;3.80;99.90;;;;;;4880442;29;20208;-76
2021/01/12 15:28:43;;;;;;;1999.90;999.90;;;3.80;99.90;;;;;;4879957;29;20299;-76
2021/01/12 15:31:11;;;;;;;1999.90;999.90;;;3.80;99.90;;;;;;4880408;29;20663;-76
2021/01/12 15:33:39;;;;;;;1999.90;999.90;;;3.90;99.90;;;;;;4880690;29;20224;-76
2021/01/12 15:36:08;;;;;;;1999.90;999.90;;;3.80;99.90;;;;;;4880288;29;20208;-76
2021/01/12 15:38:35;;;;;;;1999.90;999.90;;;3.80;99.90;;;;;;4880055;29;20211;-76
2021/01/12 15:41:03;;;;;;;1999.90;999.90;;;3.80;99.90;;;;;;4879991;29;20236;-77
2021/01/12 15:43:31;;;;;;;1999.90;999.90;;;3.80;99.90;;;;;;4880313;29;20216;-78
2021/01/12 15:45:59;;;;;;;1999.90;999.90;;;3.80;99.90;;;;;;4880256;29;20208;-76
2021/01/12 15:48:26;;;;;;;1999.90;999.90;;;3.80;99.90;;;;;;4879940;29;20441;-76
2021/01/12 15:50:54;;;;;;;1999.90;999.90;;;3.80;99.90;;;;;;4879912;29;20279;-76
2021/01/12 15:53:21;;;;;;;1999.90;999.90;;;3.80;99.90;;;;;;4880072;29;20238;-76
2021/01/12 15:55:48;;;;;;;1999.90;999.90;;;3.90;99.90;;;;;;4879913;29;20287;-77
2021/01/12 15:58:16;;;;;;;1999.90;999.90;;;3.90;99.90;;;;;;4879930;29;20346;-76
2021/01/12 16:00:44;;;;;;;1999.90;999.90;;;3.90;99.90;;;;;;4879705;29;20240;-77
2021/01/12 16:03:12;;;;;;;1999.90;999.90;;;3.80;99.90;;;;;;4880032;29;20219;-76
2021/01/12 16:05:39;;;;;;;1999.90;999.90;;;3.90;99.90;;;;;;4878917;29;20753;-77
2021/01/12 16:08:08;;;;;;;1999.90;999.90;;;3.80;99.90;;;;;;4879403;29;20667;-76
2021/01/12 16:10:36;;;;;;;1999.90;999.90;;;3.80;99.90;;;;;;4879910;29;20228;-78
2021/01/12 16:13:04;;;;;;;1999.90;999.90;;;3.80;99.90;;;;;;4879850;29;20216;-77
2021/01/12 16:15:32;;;;;;;1999.90;999.90;;;3.70;99.90;;;;;;4879949;29;20245;-77
2021/01/12 16:18:01;;;;;;;1999.90;999.90;;;3.70;99.90;;;;;;4879391;29;20570;-77
2021/01/12 16:20:30;;;;;;;1999.90;999.90;;;3.60;99.90;;;;;;4879307;29;20224;-76
2021/01/12 16:22:58;;;;;;;1999.90;999.90;;;3.60;99.90;;;;;;4879439;29;20291;-76
2021/01/12 16:25:28;;;;;;;1999.90;999.90;;;3.50;99.90;;;;;;4879434;29;20727;-77
2021/01/12 16:27:56;;;;;;;1999.90;999.90;;;3.50;99.90;;;;;;4879058;29;20561;-77
2021/01/12 16:30:25;;;;;;;1999.90;999.90;;;3.40;99.90;;;;;;4879314;29;20232;-77
2021/01/12 16:32:53;;;;;;;1999.90;999.90;;;3.40;99.90;;;;;;4879288;29;20673;-76
2021/01/12 16:35:22;;;;;;;1999.90;999.90;;;3.40;99.90;;;;;;4879457;29;20208;-78
2021/01/12 16:37:50;;;;;;;1999.90;999.90;;;3.40;99.90;;;;;;4879178;29;20208;-76
2021/01/12 16:40:19;;;;;;;1999.90;999.90;;;3.40;99.90;;;;;;4879245;29;20232;-77
2021/01/12 16:42:49;;;;;;;1999.90;999.90;;;3.40;99.90;;;;;;4879227;29;20267;-76
2021/01/12 16:45:22;;;;;;;1999.90;999.90;;;3.40;99.90;;;;;;4879279;29;20214;-76
2021/01/12 16:47:49;;;;;;;1999.90;999.90;;;3.30;99.90;;;;;;4878673;29;20700;-76
2021/01/12 16:50:18;;;;;;;1999.90;999.90;;;3.30;99.90;;;;;;4879173;29;20625;-77
2021/01/12 16:52:48;;;;;;;1999.90;999.90;;;3.20;99.90;;;;;;4878917;29;20259;-77
2021/01/12 16:55:18;;;;;;;1999.90;999.90;;;3.20;99.90;;;;;;4879281;29;20294;-76
2021/01/12 16:57:50;;;;;;;1999.90;999.90;;;3.10;99.90;;;;;;4878615;29;20212;-77
2021/01/12 17:00:18;;;;;;;1999.90;999.90;;;3.10;99.90;;;;;;4878690;29;20227;-77
2021/01/12 17:02:47;;;;;;;1999.90;999.90;;;3.10;99.90;;;;;;4878902;29;20204;-77
2021/01/12 17:05:16;;;;;;;1999.90;999.90;;;3.10;99.90;;;;;;4878927;29;20637;-77
2021/01/12 17:07:45;;;;;;;1999.90;999.90;;;3.10;99.90;;;;;;4878521;29;20208;-77
2021/01/12 17:10:14;;;;;;;1999.90;999.90;;;3.10;99.90;;;;;;4879379;29;20271;-77
2021/01/12 17:12:42;;;;;;;1999.90;999.90;;;3.00;99.90;;;;;;4886240;29;20203;-76
2021/01/12 17:15:14;;;;;;;1999.90;999.90;;;3.00;99.90;;;;;;4889518;29;20685;-80
2021/01/12 17:17:42;;;;;;;1999.90;999.90;;;3.00;99.90;;;;;;4881815;29;20208;-77